createdAt,value
2022-12-26T00:01:08.902Z,100614.19
2022-12-26T00:04:48.082Z,100612.56
2022-12-26T00:07:32.164Z,100606.63
2022-12-26T00:10:33.738Z,100604.06
2022-12-26T00:13:38.977Z,100605.91
2022-12-26T00:16:45.220Z,100606.03
2022-12-26T00:19:46.750Z,100598.19
2022-12-26T00:22:48.302Z,100602.69
2022-12-26T00:25:49.861Z,100601.06
2022-12-26T00:28:53.115Z,100589.63
2022-12-26T00:31:54.730Z,100578.19
2022-12-26T00:34:56.304Z,100587.81
2022-12-26T00:37:57.854Z,100580.72
2022-12-26T00:40:59.474Z,100582.63
2022-12-26T00:44:01.075Z,100591.50
2022-12-26T00:47:02.770Z,100598.63
2022-12-26T00:50:12.486Z,100603.91
2022-12-26T00:53:16.872Z,100593.38
2022-12-26T00:56:18.497Z,100594.34
2022-12-26T00:59:20.078Z,100597.00
2022-12-26T01:02:40.301Z,100599.66
2022-12-26T01:05:47.911Z,100592.63
2022-12-26T01:08:49.611Z,100593.56
2022-12-26T01:11:51.134Z,100586.56
2022-12-26T01:14:55.362Z,100580.41
2022-12-26T01:17:58.921Z,100571.59
2022-12-26T01:21:04.400Z,100585.72
2022-12-26T01:24:06.635Z,100580.50
2022-12-26T01:27:08.235Z,100587.59
2022-12-26T01:30:10.426Z,100583.22
2022-12-26T01:33:11.984Z,100575.28
2022-12-26T01:36:14.069Z,100582.31
2022-12-26T01:39:16.077Z,100578.78
2022-12-26T01:42:20.789Z,100588.47
2022-12-26T01:45:32.303Z,100592.91
2022-12-26T01:48:34.547Z,100585.00
2022-12-26T01:51:40.135Z,100584.19
2022-12-26T01:54:46.044Z,100584.25
2022-12-26T01:57:54.387Z,100593.16
2022-12-26T02:00:56.069Z,100594.94
2022-12-26T02:04:21.478Z,100599.38
2022-12-26T02:07:23.864Z,100602.97
2022-12-26T02:10:28.399Z,100599.56
2022-12-26T02:13:30.749Z,100611.09
2022-12-26T02:16:33.851Z,100616.41
2022-12-26T02:20:10.530Z,100605.81
2022-12-26T02:23:32.278Z,100598.03
2022-12-26T02:27:01.813Z,100592.84
2022-12-26T02:30:34.922Z,100592.03
2022-12-26T02:34:02.722Z,100600.94
2022-12-26T02:37:04.300Z,100603.66
2022-12-26T02:40:33.185Z,100611.59
2022-12-26T02:43:50.090Z,100607.28
2022-12-26T02:47:04.070Z,100603.84
2022-12-26T02:50:33.358Z,100607.34
2022-12-26T02:54:17.722Z,100603.94
2022-12-26T02:57:42.850Z,100606.56
2022-12-26T03:01:05.460Z,100606.66
2022-12-26T03:04:31.582Z,100603.16
2022-12-26T03:07:58.908Z,100602.31
2022-12-26T03:11:20.202Z,100589.94
2022-12-26T03:14:29.662Z,100595.22
2022-12-26T03:17:41.120Z,100602.31
2022-12-26T03:20:42.675Z,100593.44
2022-12-26T03:23:46.500Z,100591.72
2022-12-26T03:26:54.009Z,100604.88
2022-12-26T03:30:14.188Z,100601.28
2022-12-26T03:33:42.976Z,100596.84
2022-12-26T03:36:58.193Z,100587.97
2022-12-26T03:40:21.149Z,100603.84
2022-12-26T03:43:59.853Z,100601.22
2022-12-26T03:47:22.800Z,100608.28
2022-12-26T03:51:02.501Z,100603.94
2022-12-26T03:54:34.018Z,100607.44
2022-12-26T03:58:25.904Z,100613.59
2022-12-26T04:01:50.835Z,100611.81
2022-12-26T04:05:15.464Z,100602.13
2022-12-26T04:08:50.269Z,100603.00
2022-12-26T04:12:14.223Z,100605.66
2022-12-26T04:15:41.289Z,100607.28
2022-12-26T04:19:10.527Z,100601.97
2022-12-26T04:22:57.017Z,100601.00
2022-12-26T04:26:24.900Z,100604.47
2022-12-26T04:29:45.194Z,100600.84
2022-12-26T04:33:07.592Z,100605.13
2022-12-26T04:36:37.098Z,100603.44
2022-12-26T04:40:01.581Z,100604.25
2022-12-26T04:43:46.583Z,100613.94
2022-12-26T04:46:48.266Z,100611.38
2022-12-26T04:50:08.433Z,100615.72
2022-12-26T04:53:10.905Z,100614.78
2022-12-26T04:56:12.981Z,100615.66
2022-12-26T04:59:15.254Z,100610.34
2022-12-26T05:02:35.376Z,100604.09
2022-12-26T05:06:01.445Z,100618.09
2022-12-26T05:09:21.424Z,100613.66
2022-12-26T05:12:22.997Z,100613.56
2022-12-26T05:15:24.574Z,100624.94
2022-12-26T05:18:44.661Z,100616.13
2022-12-26T05:22:05.074Z,100617.00
2022-12-26T05:25:34.242Z,100618.69
2022-12-26T05:28:41.812Z,100602.81
2022-12-26T05:31:43.558Z,100600.09
2022-12-26T05:34:45.130Z,100610.56
2022-12-26T05:37:46.698Z,100605.19
2022-12-26T05:40:48.223Z,100613.06
2022-12-26T05:43:49.830Z,100610.41
2022-12-26T05:46:51.384Z,100607.63
2022-12-26T05:49:53.080Z,100597.91
2022-12-26T05:52:57.429Z,100602.19
2022-12-26T05:56:04.730Z,100610.13
2022-12-26T05:59:06.253Z,100600.44
2022-12-26T06:02:07.944Z,100600.44
2022-12-26T06:05:09.788Z,100602.34
2022-12-26T06:08:11.359Z,100605.84
2022-12-26T06:11:13.999Z,100616.44
2022-12-26T06:14:16.177Z,100624.41
2022-12-26T06:17:17.753Z,100615.59
2022-12-26T06:20:19.362Z,100623.44
2022-12-26T06:23:20.902Z,100612.84
2022-12-26T06:26:22.508Z,100617.09
2022-12-26T06:29:24.126Z,100613.53
2022-12-26T06:32:25.738Z,100625.75
2022-12-26T06:35:27.312Z,100639.00
2022-12-26T06:38:28.871Z,100633.59
2022-12-26T06:41:30.458Z,100636.25
2022-12-26T06:44:32.056Z,100636.19
2022-12-26T06:47:33.594Z,100635.31
2022-12-26T06:50:37.333Z,100629.91
2022-12-26T06:53:39.123Z,100629.84
2022-12-26T06:56:40.692Z,100628.81
2022-12-26T06:59:42.235Z,100627.84
2022-12-26T07:02:43.871Z,100629.47
2022-12-26T07:05:45.522Z,100635.72
2022-12-26T07:08:47.334Z,100639.16
2022-12-26T07:11:50.569Z,100643.47
2022-12-26T07:14:55.459Z,100654.88
2022-12-26T07:17:59.635Z,100645.97
2022-12-26T07:21:05.175Z,100638.97
2022-12-26T07:24:08.052Z,100640.66
2022-12-26T07:27:09.652Z,100638.78
2022-12-26T07:30:11.550Z,100625.44
2022-12-26T07:33:13.174Z,100634.25
2022-12-26T07:36:14.826Z,100627.13
2022-12-26T07:39:16.548Z,100622.69
2022-12-26T07:42:20.294Z,100614.84
2022-12-26T07:45:21.890Z,100618.34
2022-12-26T07:48:23.439Z,100611.22
2022-12-26T07:51:25.006Z,100615.69
2022-12-26T07:54:28.628Z,100621.84
2022-12-26T07:57:48.019Z,100618.34
2022-12-26T08:00:50.717Z,100604.31
2022-12-26T08:03:52.557Z,100613.06
2022-12-26T08:06:54.110Z,100615.69
2022-12-26T08:09:55.637Z,100625.34
2022-12-26T08:12:57.759Z,100624.47
2022-12-26T08:16:00.975Z,100621.00
2022-12-26T08:19:04.093Z,100625.34
2022-12-26T08:22:06.407Z,100637.66
2022-12-26T08:25:08.692Z,100629.34
2022-12-26T08:28:10.283Z,100635.41
2022-12-26T08:31:13.982Z,100634.47
2022-12-26T08:34:15.629Z,100635.41
2022-12-26T08:37:17.231Z,100628.41
2022-12-26T08:40:40.059Z,100616.06
2022-12-26T08:47:02.409Z,100620.56
2022-12-26T08:50:04.226Z,100615.31
2022-12-26T08:53:05.749Z,100623.28
2022-12-26T08:56:10.504Z,100622.41
2022-12-26T08:59:12.022Z,100621.59
2022-12-26T09:02:13.773Z,100622.41
2022-12-26T09:05:15.529Z,100626.03
2022-12-26T09:08:17.073Z,100623.28
2022-12-26T09:11:26.778Z,100630.31
2022-12-26T09:14:28.439Z,100633.81
2022-12-26T09:17:30.140Z,100641.75
2022-12-26T09:20:33.271Z,100648.84
2022-12-26T09:23:36.234Z,100642.59
2022-12-26T09:26:38.619Z,100633.81
2022-12-26T09:29:40.165Z,100632.94
2022-12-26T09:32:42.256Z,100638.25
2022-12-26T09:35:43.793Z,100634.63
2022-12-26T09:38:46.792Z,100628.56
2022-12-26T09:42:26.369Z,100631.16
2022-12-26T09:46:07.400Z,100617.97
2022-12-26T09:49:34.752Z,100626.69
2022-12-26T09:53:06.758Z,100633.81
2022-12-26T09:56:23.768Z,100625.75
2022-12-26T09:59:46.713Z,100616.84
2022-12-26T10:02:54.747Z,100613.25
2022-12-26T10:06:05.661Z,100613.16
2022-12-26T10:09:07.176Z,100604.19
2022-12-26T10:12:11.718Z,100606.78
2022-12-26T10:15:27.501Z,100594.28
2022-12-26T10:18:58.000Z,100596.00
2022-12-26T10:22:17.918Z,100597.78
2022-12-26T10:25:33.598Z,100597.69
2022-12-26T10:28:51.684Z,100586.03
2022-12-26T10:32:20.532Z,100579.88
2022-12-26T10:35:39.912Z,100582.16
2022-12-26T10:38:45.023Z,100585.97
2022-12-26T10:41:50.832Z,100585.78
2022-12-26T10:44:52.455Z,100581.13
2022-12-26T10:47:55.141Z,100572.06
2022-12-26T10:50:56.955Z,100577.94
2022-12-26T10:53:58.698Z,100585.78
2022-12-26T10:57:01.358Z,100584.84
2022-12-26T11:00:14.097Z,100581.34
2022-12-26T11:03:18.805Z,100576.97
2022-12-26T11:06:23.218Z,100585.88
2022-12-26T11:09:55.961Z,100572.69
2022-12-26T11:13:02.733Z,100586.06
2022-12-26T11:16:05.386Z,100591.56
2022-12-26T11:19:07.014Z,100595.16
2022-12-26T11:22:29.883Z,100593.47
2022-12-26T11:25:35.135Z,100590.06
2022-12-26T11:28:37.874Z,100592.59
2022-12-26T11:31:41.524Z,100586.44
2022-12-26T11:34:46.351Z,100592.03
2022-12-26T11:37:55.572Z,100599.50
2022-12-26T11:41:16.314Z,100586.16
2022-12-26T11:44:25.025Z,100584.38
2022-12-26T11:47:29.440Z,100586.00
2022-12-26T11:50:31.626Z,100583.97
2022-12-26T11:53:34.882Z,100604.28
2022-12-26T11:56:36.421Z,100605.13
2022-12-26T11:59:38.560Z,100595.34
2022-12-26T12:02:41.834Z,100604.84
2022-12-26T12:06:10.741Z,100615.91
2022-12-26T12:09:21.687Z,100617.06
2022-12-26T12:12:38.911Z,100622.06
2022-12-26T12:15:49.594Z,100630.03
2022-12-26T12:19:25.259Z,100646.25
2022-12-26T12:23:06.047Z,100655.63
2022-12-26T12:26:26.211Z,100676.56
2022-12-26T12:29:37.466Z,100670.22
2022-12-26T12:33:07.270Z,100676.28
2022-12-26T12:36:12.103Z,100688.38
2022-12-26T12:39:25.897Z,100693.09
2022-12-26T12:42:42.793Z,100696.03
2022-12-26T12:46:11.247Z,100698.97
2022-12-26T12:49:20.385Z,100714.28
2022-12-26T12:52:49.931Z,100724.78
2022-12-26T12:56:16.217Z,100741.28
2022-12-26T12:59:23.574Z,100750.03
2022-12-26T13:02:56.141Z,100747.88
2022-12-26T13:06:12.915Z,100750.97
2022-12-26T13:09:20.610Z,100749.53
2022-12-26T13:12:26.410Z,100755.09
2022-12-26T13:15:42.973Z,100751.00
2022-12-26T13:18:52.429Z,100758.84
2022-12-26T13:21:58.312Z,100770.22
2022-12-26T13:25:02.173Z,100788.06
2022-12-26T13:28:10.709Z,100801.16
2022-12-26T13:31:13.235Z,100808.78
2022-12-26T13:34:18.127Z,100802.13
2022-12-26T13:37:37.794Z,100816.97
2022-12-26T13:40:47.134Z,100821.22
2022-12-26T13:44:01.919Z,100821.88
2022-12-26T13:47:04.246Z,100832.88
2022-12-26T13:50:47.182Z,100831.66
2022-12-26T13:54:10.363Z,100837.44
2022-12-26T13:57:26.141Z,100846.53
2022-12-26T14:00:47.126Z,100862.50
2022-12-26T14:04:01.750Z,100862.75
2022-12-26T14:07:05.992Z,100876.38
2022-12-26T14:10:22.990Z,100890.00
2022-12-26T14:13:46.889Z,100891.41
2022-12-26T14:17:23.646Z,100901.81
2022-12-26T14:20:47.062Z,100908.56
2022-12-26T14:24:13.360Z,100911.69
2022-12-26T14:27:53.317Z,100927.78
2022-12-26T14:31:04.146Z,100930.66
2022-12-26T14:34:36.700Z,100941.38
2022-12-26T14:37:44.791Z,100945.13
2022-12-26T14:41:34.407Z,100954.13
2022-12-26T14:44:38.951Z,100964.84
2022-12-26T14:47:45.303Z,100954.34
2022-12-26T14:50:57.115Z,100966.72
2022-12-26T14:54:22.324Z,100960.78
2022-12-26T14:57:50.535Z,100958.41
2022-12-26T15:00:53.039Z,100964.78
2022-12-26T15:04:09.597Z,100957.91
2022-12-26T15:07:20.873Z,100967.81
2022-12-26T15:10:34.864Z,100965.47
2022-12-26T15:13:59.336Z,100970.81
2022-12-26T15:17:15.205Z,100973.75
2022-12-26T15:20:47.784Z,100986.22
2022-12-26T15:24:34.255Z,100987.31
2022-12-26T15:27:59.438Z,100992.94
2022-12-26T15:31:07.150Z,100999.47
2022-12-26T15:34:11.760Z,101005.75
2022-12-26T15:37:42.995Z,101016.47
2022-12-26T15:41:40.425Z,101016.63
2022-12-26T15:45:15.098Z,101023.09
2022-12-26T15:48:38.170Z,101027.69
2022-12-26T15:51:58.395Z,101036.59
2022-12-26T15:55:29.379Z,101045.50
2022-12-26T15:58:36.953Z,101057.06
2022-12-26T16:01:44.548Z,101047.47
2022-12-26T16:04:54.494Z,101051.97
2022-12-26T16:08:21.939Z,101053.88
2022-12-26T16:11:29.405Z,101049.75
2022-12-26T16:14:39.399Z,101053.38
2022-12-26T16:17:43.113Z,101059.66
2022-12-26T16:21:05.578Z,101061.53
2022-12-26T16:24:11.945Z,101063.47
2022-12-26T16:27:19.333Z,101064.47
2022-12-26T16:30:24.450Z,101062.81
2022-12-26T16:33:30.820Z,101068.25
2022-12-26T16:36:35.744Z,101064.78
2022-12-26T16:39:37.354Z,101078.19
2022-12-26T16:42:45.604Z,101075.78
2022-12-26T16:45:49.960Z,101075.13
2022-12-26T16:49:00.039Z,101072.66
2022-12-26T16:52:01.725Z,101082.84
2022-12-26T16:55:31.337Z,101082.25
2022-12-26T16:58:37.922Z,101089.53
2022-12-26T17:01:39.755Z,101091.47
2022-12-26T17:04:48.329Z,101090.81
2022-12-26T17:07:51.864Z,101096.22
2022-12-26T17:10:53.623Z,101101.66
2022-12-26T17:13:56.232Z,101109.72
2022-12-26T17:17:03.787Z,101116.88
2022-12-26T17:20:23.482Z,101124.16
2022-12-26T17:23:35.801Z,101115.53
2022-12-26T17:26:38.747Z,101121.78
2022-12-26T17:29:47.134Z,101117.50
2022-12-26T17:32:48.827Z,101128.19
2022-12-26T17:39:24.392Z,101137.13
2022-12-26T17:42:25.986Z,101143.31
2022-12-26T17:45:27.819Z,101143.50
2022-12-26T17:48:29.845Z,101137.47
2022-12-26T17:51:31.745Z,101140.31
2022-12-26T17:54:33.318Z,101150.06
2022-12-26T17:57:34.840Z,101140.47
2022-12-26T18:00:36.421Z,101140.66
2022-12-26T18:03:38.128Z,101148.66
2022-12-26T18:06:40.748Z,101143.44
2022-12-26T18:09:43.177Z,101147.97
2022-12-26T18:12:44.901Z,101149.88
2022-12-26T18:15:47.068Z,101163.06
2022-12-26T18:18:48.718Z,101169.38
2022-12-26T18:21:50.274Z,101177.38
2022-12-26T18:24:51.860Z,101168.66
2022-12-26T18:27:53.813Z,101174.09
2022-12-26T18:30:58.072Z,101182.91
2022-12-26T18:34:00.519Z,101183.88
2022-12-26T18:37:02.091Z,101182.16
2022-12-26T18:40:04.691Z,101184.91
2022-12-26T18:43:07.881Z,101185.88
2022-12-26T18:46:18.253Z,101195.53
2022-12-26T18:49:19.841Z,101186.75
2022-12-26T18:52:21.395Z,101191.22
2022-12-26T18:55:23.988Z,101199.13
2022-12-26T18:58:25.755Z,101194.81
2022-12-26T19:01:27.572Z,101201.06
2022-12-26T19:04:29.288Z,101200.25
2022-12-26T19:07:31.207Z,101198.56
2022-12-26T19:10:34.658Z,101207.44
2022-12-26T19:13:36.265Z,101199.59
2022-12-26T19:16:38.721Z,101215.44
2022-12-26T19:19:40.720Z,101214.56
2022-12-26T19:22:42.253Z,101224.25
2022-12-26T19:25:43.816Z,101220.75
2022-12-26T19:28:49.899Z,101230.41
2022-12-26T19:31:51.541Z,101233.16
2022-12-26T19:34:56.039Z,101230.56
2022-12-26T19:37:58.425Z,101229.78
2022-12-26T19:41:14.292Z,101232.50
2022-12-26T19:44:15.926Z,101232.50
2022-12-26T19:47:17.656Z,101243.91
2022-12-26T19:50:19.406Z,101236.94
2022-12-26T19:53:21.109Z,101250.22
2022-12-26T19:56:27.720Z,101252.06
2022-12-26T19:59:29.459Z,101251.25
2022-12-26T20:02:31.170Z,101253.13
2022-12-26T20:05:32.785Z,101266.28
2022-12-26T20:08:34.381Z,101259.34
2022-12-26T20:11:39.008Z,101259.38
2022-12-26T20:14:40.599Z,101262.00
2022-12-26T20:17:42.214Z,101262.94
2022-12-26T20:20:52.357Z,101264.78
2022-12-26T20:23:53.954Z,101271.00
2022-12-26T20:26:55.704Z,101277.28
2022-12-26T20:29:57.254Z,101284.38
2022-12-26T20:32:58.809Z,101292.34
2022-12-26T20:36:05.023Z,101295.91
2022-12-26T20:39:11.295Z,101302.13
2022-12-26T20:42:15.707Z,101297.81
2022-12-26T20:45:17.405Z,101308.38
2022-12-26T20:48:19.067Z,101303.22
2022-12-26T20:51:29.037Z,101316.41
2022-12-26T20:54:34.739Z,101310.38
2022-12-26T20:57:36.286Z,101329.75
2022-12-26T21:00:37.877Z,101327.22
2022-12-26T21:03:40.073Z,101327.31
2022-12-26T21:06:45.713Z,101339.63
2022-12-26T21:09:47.343Z,101339.63
2022-12-26T21:12:49.088Z,101331.72
2022-12-26T21:15:50.664Z,101339.63
2022-12-26T21:18:52.345Z,101338.69
2022-12-26T21:21:55.512Z,101342.03
2022-12-26T21:24:57.091Z,101342.38
2022-12-26T21:27:59.512Z,101337.63
2022-12-26T21:31:02.206Z,101343.44
2022-12-26T21:34:05.114Z,101349.28
2022-12-26T21:37:25.161Z,101349.34
2022-12-26T21:40:27.631Z,101348.50
2022-12-26T21:43:30.551Z,101343.34
2022-12-26T21:46:32.434Z,101343.53
2022-12-26T21:49:34.273Z,101346.34
2022-12-26T21:52:35.975Z,101342.03
2022-12-26T21:55:38.695Z,101361.44
2022-12-26T21:58:59.324Z,101358.06
2022-12-26T22:02:01.135Z,101361.69
2022-12-26T22:05:02.954Z,101370.53
2022-12-26T22:08:08.358Z,101374.97
2022-12-26T22:11:35.913Z,101376.84
2022-12-26T22:14:37.460Z,101389.19
2022-12-26T22:17:38.969Z,101395.38
2022-12-26T22:20:41.496Z,101394.56
2022-12-26T22:23:44.359Z,101402.47
2022-12-26T22:26:45.890Z,101401.66
2022-12-26T22:29:47.443Z,101399.97
2022-12-26T22:32:48.964Z,101403.56
2022-12-26T22:35:50.578Z,101403.59
2022-12-26T22:38:52.438Z,101404.56
2022-12-26T22:41:58.884Z,101407.22
2022-12-26T22:45:03.948Z,101400.25
2022-12-26T22:48:05.707Z,101409.91
2022-12-26T22:51:07.546Z,101408.16
2022-12-26T22:54:09.110Z,101409.03
2022-12-26T22:57:10.680Z,101406.41
2022-12-26T23:00:13.935Z,101408.47
2022-12-26T23:03:15.783Z,101411.84
2022-12-26T23:06:29.636Z,101408.19
2022-12-26T23:09:31.502Z,101410.97
2022-12-26T23:12:45.567Z,101419.03
2022-12-26T23:16:01.828Z,101417.47
2022-12-26T23:19:41.129Z,101420.34
2022-12-26T23:22:42.994Z,101416.22
2022-12-26T23:25:44.520Z,101427.84
2022-12-26T23:29:04.703Z,101424.53
2022-12-26T23:32:08.526Z,101419.47
2022-12-26T23:35:12.219Z,101430.97
2022-12-26T23:38:13.806Z,101421.53
2022-12-26T23:41:15.354Z,101420.78
2022-12-26T23:44:17.055Z,101428.78
2022-12-26T23:47:18.804Z,101422.78
2022-12-26T23:50:20.389Z,101422.03
2022-12-26T23:53:21.932Z,101424.72
2022-12-26T23:56:23.626Z,101416.91
2022-12-26T23:59:25.265Z,101422.25
